Anvle, Pennsylvania
Current Conditions -  °F | °C
As of 9:58 PM on Thursday 18 Dec 2014 (Local Time) from KMUI Reporting Station
Overcast Overcast  
Wind Chill: 28°   Ceiling: 2600
Heat Index: 35°   Visibility: 10mi
Dew Point: 24°   Wind: 8mph
Humidity: 66%   Direction: 270°W
Pressure: 30.06"   Gusts: NA
Location:  40.43°N, 76.56°W
Report Text: KMUI 190258Z AUTO 27007KT 10SM OVC026 01/M04 A3006 RMK AO2 SLPNO T00141043 50003
Loading
Personal Weather Stations






























Interactive Weather Map New forecast layout! Learn more

10-Day Weather Forecast

Advertisements
Track Severe Weather on mobile